createdAt,value
2023-03-05T00:02:05.883Z,53.23
2023-03-05T00:07:12.336Z,53.40
2023-03-05T00:12:15.292Z,53.32
2023-03-05T00:17:18.415Z,53.30
2023-03-05T00:22:21.691Z,53.34
2023-03-05T00:27:24.599Z,53.84
2023-03-05T00:32:27.446Z,53.90
2023-03-05T00:37:30.234Z,53.86
2023-03-05T00:42:38.593Z,54.12
2023-03-05T00:47:41.337Z,53.97
2023-03-05T00:52:44.115Z,54.35
2023-03-05T00:57:46.797Z,54.79
2023-03-05T01:02:49.638Z,55.01
2023-03-05T01:07:53.967Z,54.99
2023-03-05T01:12:57.849Z,55.44
2023-03-05T01:18:00.593Z,55.43
2023-03-05T01:23:03.498Z,55.47
2023-03-05T01:28:06.235Z,55.45
2023-03-05T01:33:09.598Z,56.11
2023-03-05T01:38:12.400Z,56.74
2023-03-05T01:43:29.319Z,56.60
2023-03-05T01:48:32.174Z,56.59
2023-03-05T01:53:35.039Z,57.14
2023-03-05T01:58:39.900Z,57.14
2023-03-05T02:03:43.018Z,57.79
2023-03-05T02:08:45.757Z,58.29
2023-03-05T02:13:48.522Z,58.69
2023-03-05T02:18:51.326Z,58.71
2023-03-05T02:23:54.408Z,59.20
2023-03-05T02:29:01.093Z,59.29
2023-03-05T02:34:03.793Z,59.70
2023-03-05T02:39:07.264Z,59.53
2023-03-05T02:44:10.037Z,60.10
2023-03-05T02:49:12.797Z,59.66
2023-03-05T02:54:15.625Z,59.77
2023-03-05T02:59:18.375Z,59.89
2023-03-05T03:04:21.173Z,60.39
2023-03-05T03:09:23.860Z,60.84
2023-03-05T03:14:26.733Z,60.83
2023-03-05T03:19:29.533Z,61.50
2023-03-05T03:24:33.760Z,67.05
2023-03-05T03:29:37.210Z,65.95
2023-03-05T03:34:40.132Z,54.65
2023-03-05T03:39:42.893Z,51.98
2023-03-05T03:44:45.640Z,53.81
2023-03-05T03:49:48.340Z,56.54
2023-03-05T03:54:53.244Z,58.86
2023-03-05T03:59:56.058Z,59.62
2023-03-05T04:04:58.846Z,60.35
2023-03-05T04:10:01.647Z,60.74
2023-03-05T04:15:08.049Z,61.49
2023-03-05T04:20:11.739Z,63.43
2023-03-05T04:25:14.968Z,58.10
2023-03-05T04:30:18.060Z,54.41
2023-03-05T04:35:20.825Z,56.76
2023-03-05T04:40:23.572Z,59.22
2023-03-05T04:45:26.390Z,60.25
2023-03-05T04:50:29.103Z,61.37
2023-03-05T04:55:31.873Z,62.01
2023-03-05T05:00:34.670Z,66.43
2023-03-05T05:05:37.987Z,67.99
2023-03-05T05:10:41.571Z,57.85
2023-03-05T05:15:44.292Z,53.27
2023-03-05T05:20:47.924Z,57.19
2023-03-05T05:26:01.619Z,61.32
2023-03-05T05:31:08.643Z,62.88
2023-03-05T05:36:15.373Z,68.61
2023-03-05T05:41:19.638Z,62.70
2023-03-05T05:46:23.029Z,55.11
2023-03-05T05:51:26.252Z,57.28
2023-03-05T05:56:29.050Z,59.90
2023-03-05T06:01:34.720Z,60.44
2023-03-05T06:06:37.945Z,61.01
2023-03-05T06:11:40.726Z,62.84
2023-03-05T06:16:43.592Z,65.45
2023-03-05T06:21:46.382Z,57.47
2023-03-05T06:26:49.388Z,53.91
2023-03-05T06:31:52.348Z,57.46
2023-03-05T06:36:55.667Z,56.22
2023-03-05T06:41:58.768Z,56.59
2023-03-05T06:47:01.469Z,53.11
2023-03-05T06:52:06.013Z,51.08
2023-03-05T06:57:10.590Z,50.96
2023-03-05T07:02:14.384Z,47.06
2023-03-05T07:07:17.385Z,49.41
2023-03-05T07:12:20.121Z,46.68
2023-03-05T07:17:22.889Z,45.72
2023-03-05T07:22:25.606Z,44.92
2023-03-05T07:27:28.493Z,44.59
2023-03-05T07:32:31.528Z,44.27
2023-03-05T07:37:34.709Z,42.49
2023-03-05T07:42:37.427Z,39.51
2023-03-05T07:47:40.491Z,36.77
2023-03-05T07:52:43.221Z,35.94
2023-03-05T07:57:45.978Z,34.38
2023-03-05T08:02:50.217Z,34.18
2023-03-05T08:07:53.132Z,33.21
2023-03-05T08:12:55.958Z,30.19
2023-03-05T08:17:59.855Z,28.73
2023-03-05T08:23:03.495Z,29.42
2023-03-05T08:28:06.243Z,32.45
2023-03-05T08:33:09.112Z,34.04
2023-03-05T08:38:11.916Z,34.62
2023-03-05T08:43:15.458Z,34.14
2023-03-05T08:48:18.141Z,32.71
2023-03-05T08:53:20.854Z,32.83
2023-03-05T08:58:24.637Z,32.52
2023-03-05T09:03:27.892Z,31.54
2023-03-05T09:08:30.632Z,31.85
2023-03-05T09:13:34.010Z,32.21
2023-03-05T09:18:36.980Z,32.87
2023-03-05T09:23:40.964Z,34.83
2023-03-05T09:28:43.714Z,36.33
2023-03-05T09:33:48.046Z,36.53
2023-03-05T09:38:51.393Z,34.97
2023-03-05T09:44:02.466Z,34.59
2023-03-05T09:49:13.280Z,33.79
2023-03-05T09:54:41.738Z,33.60
2023-03-05T09:59:59.515Z,31.86
2023-03-05T10:05:43.585Z,32.78
2023-03-05T10:10:51.202Z,32.95
2023-03-05T10:16:06.224Z,31.73
2023-03-05T10:21:32.209Z,30.60
2023-03-05T10:27:13.430Z,30.71
2023-03-05T10:32:36.276Z,29.04
2023-03-05T10:37:41.997Z,27.97
2023-03-05T10:43:15.710Z,26.10
2023-03-05T10:48:59.263Z,25.32
2023-03-05T10:54:04.632Z,26.38
2023-03-05T10:59:07.342Z,28.84
2023-03-05T11:04:28.687Z,32.14
2023-03-05T11:09:35.556Z,31.30
2023-03-05T11:14:41.739Z,29.65
2023-03-05T11:19:44.572Z,27.51
2023-03-05T11:25:05.689Z,25.21
2023-03-05T11:30:29.166Z,24.90
2023-03-05T11:35:35.138Z,23.40
2023-03-05T11:40:37.875Z,22.23
2023-03-05T11:45:42.275Z,22.63
2023-03-05T11:50:48.966Z,26.09
2023-03-05T11:56:04.166Z,28.40
2023-03-05T12:01:20.992Z,29.14
2023-03-05T12:06:37.732Z,32.52
2023-03-05T12:11:41.239Z,39.84
2023-03-05T12:16:53.475Z,41.64
2023-03-05T12:21:57.500Z,41.83
2023-03-05T12:27:03.063Z,43.79
2023-03-05T12:32:26.104Z,45.47
2023-03-05T12:37:28.940Z,45.96
2023-03-05T12:42:31.661Z,39.28
2023-03-05T12:47:34.383Z,31.93
2023-03-05T12:52:42.277Z,31.10
2023-03-05T12:57:47.285Z,33.37
2023-03-05T13:02:56.429Z,36.28
2023-03-05T13:08:18.174Z,34.25
2023-03-05T13:13:21.718Z,32.84
2023-03-05T13:18:27.401Z,33.09
2023-03-05T13:23:32.653Z,28.96
2023-03-05T13:28:37.516Z,28.35
2023-03-05T13:33:40.618Z,28.99
2023-03-05T13:38:48.636Z,29.97
2023-03-05T13:43:55.212Z,30.64
2023-03-05T13:49:18.057Z,29.87
2023-03-05T13:54:23.412Z,28.97
2023-03-05T13:59:29.706Z,27.54
2023-03-05T14:04:38.042Z,25.23
2023-03-05T14:09:40.708Z,25.58
2023-03-05T14:14:44.157Z,26.01
2023-03-05T14:19:46.951Z,24.16
2023-03-05T14:24:53.575Z,21.68
2023-03-05T14:29:56.331Z,20.03
2023-03-05T14:35:01.943Z,19.35
2023-03-05T14:40:32.109Z,19.38
2023-03-05T14:45:38.453Z,19.22
2023-03-05T14:50:46.012Z,18.65
2023-03-05T14:55:51.461Z,19.85
2023-03-05T15:00:55.601Z,22.02
2023-03-05T15:05:59.569Z,24.15
2023-03-05T15:11:04.069Z,26.37
2023-03-05T15:16:07.986Z,26.38
2023-03-05T15:21:11.131Z,24.35
2023-03-05T15:26:15.467Z,23.04
2023-03-05T15:31:18.689Z,21.99
2023-03-05T15:36:21.572Z,21.33
2023-03-05T15:41:24.963Z,20.75
2023-03-05T15:46:27.840Z,20.73
2023-03-05T15:51:30.615Z,22.66
2023-03-05T15:56:33.369Z,26.99
2023-03-05T16:01:39.288Z,31.79
2023-03-05T16:06:43.723Z,34.18
2023-03-05T16:11:49.561Z,38.72
2023-03-05T16:16:55.543Z,42.61
2023-03-05T16:21:58.223Z,45.63
2023-03-05T16:27:01.039Z,45.57
2023-03-05T16:32:04.943Z,47.34
2023-03-05T16:37:07.789Z,48.41
2023-03-05T16:42:10.784Z,51.96
2023-03-05T16:47:13.659Z,51.94
2023-03-05T16:52:19.720Z,52.92
2023-03-05T16:57:25.788Z,56.35
2023-03-05T17:02:28.853Z,57.24
2023-03-05T17:07:31.646Z,57.08
2023-03-05T17:12:34.332Z,58.83
2023-03-05T17:17:38.921Z,58.68
2023-03-05T17:22:42.332Z,59.20
2023-03-05T17:27:45.112Z,60.22
2023-03-05T17:32:48.116Z,59.98
2023-03-05T17:37:53.531Z,61.70
2023-03-05T17:42:56.273Z,64.56
2023-03-05T17:47:59.022Z,59.46
2023-03-05T17:53:01.880Z,55.52
2023-03-05T17:58:04.678Z,57.10
2023-03-05T18:03:07.613Z,61.09
2023-03-05T18:08:10.389Z,62.28
2023-03-05T18:13:13.187Z,57.20
2023-03-05T18:18:17.327Z,56.16
2023-03-05T18:23:20.050Z,59.11
2023-03-05T18:28:22.882Z,61.10
2023-03-05T18:33:25.815Z,68.37
2023-03-05T18:38:29.901Z,67.41
2023-03-05T18:43:32.656Z,57.55
2023-03-05T18:48:35.387Z,54.92
2023-03-05T18:53:38.155Z,58.83
2023-03-05T18:58:40.972Z,61.36
2023-03-05T19:03:45.198Z,70.43
2023-03-05T19:08:50.776Z,67.62
2023-03-05T19:13:53.456Z,58.61
2023-03-05T19:19:20.131Z,55.07
2023-03-05T19:24:25.462Z,59.22
2023-03-05T19:29:33.271Z,63.62
2023-03-05T19:34:36.761Z,65.45
2023-03-05T19:39:39.676Z,58.69
2023-03-05T19:44:42.353Z,57.51
2023-03-05T19:49:45.079Z,61.38
2023-03-05T19:54:47.796Z,66.11
2023-03-05T19:59:53.701Z,62.31
2023-03-05T20:04:57.538Z,58.06
2023-03-05T20:10:00.972Z,56.12
2023-03-05T20:15:03.943Z,59.14
2023-03-05T20:20:07.549Z,64.03
2023-03-05T20:25:12.080Z,64.67
2023-03-05T20:30:17.558Z,62.77
2023-03-05T20:35:20.899Z,57.51
2023-03-05T20:40:23.687Z,56.50
2023-03-05T20:45:26.388Z,61.14
2023-03-05T20:50:29.052Z,67.64
2023-03-05T20:55:32.724Z,67.94
2023-03-05T21:00:37.282Z,62.84
2023-03-05T21:05:40.080Z,60.48
2023-03-05T21:10:42.956Z,55.06
2023-03-05T21:15:45.734Z,56.18
2023-03-05T21:20:48.528Z,59.59
2023-03-05T21:25:51.306Z,65.99
2023-03-05T21:30:55.840Z,67.23
2023-03-05T21:35:59.118Z,63.67
2023-03-05T21:41:03.148Z,60.08
2023-03-05T21:46:06.083Z,55.79
2023-03-05T21:51:09.151Z,58.00
2023-03-05T21:56:23.547Z,62.84
2023-03-05T22:01:26.595Z,67.33
2023-03-05T22:06:29.389Z,64.31
2023-03-05T22:11:32.138Z,59.18
2023-03-05T22:16:34.970Z,56.46
2023-03-05T22:21:37.948Z,59.22
2023-03-05T22:26:41.749Z,64.80
2023-03-05T22:31:44.724Z,65.11
2023-03-05T22:36:47.476Z,61.55
2023-03-05T22:41:50.573Z,55.60
2023-03-05T22:46:53.384Z,56.72
2023-03-05T22:51:56.062Z,60.28
2023-03-05T22:56:59.277Z,66.85
2023-03-05T23:02:01.969Z,63.24
2023-03-05T23:07:04.922Z,57.32
2023-03-05T23:12:08.257Z,59.28
2023-03-05T23:17:11.015Z,65.05
2023-03-05T23:22:14.223Z,64.95
2023-03-05T23:27:19.102Z,57.70
2023-03-05T23:32:21.836Z,59.71
2023-03-05T23:37:24.611Z,65.86
2023-03-05T23:42:27.685Z,63.23
2023-03-05T23:47:30.490Z,57.65
2023-03-05T23:52:33.904Z,58.23
2023-03-05T23:57:37.036Z,65.33
